windsock image

Welcome to Bigfield Strip.

anemometer image
     

 Help for dials.  
 
Local Met:

Wind:   
10 Min average:  
337 ° / 14.7 kts (11.3)
321° / 13.9

Temperature:  
11.3°C C
Dew Point:  
6.8°C C
QNH:  
Trend:  
1001.5 mb mb
+1.9mb/hr
BigField Strip. This image updates approximately every minute, it can have a two minute delay.  
 

Humidity:  
74 %
Sunrise:   06:38z
Sunset:   16:57z
Updated:  
  UTC
 
   More met info, trends, radar, history etc. available here   

LUTON Metar   EGGW 210820Z 27026KT 9999 SCT025 BKN030 13/10 Q1000
 
  TAF   2014/10/21 06:15 TAF TAF EGGW 210502Z 2106/2206 22017KT 9999 BKN016 TEMPO 2106/2107 25020G30KT 6000 RA BKN007 PROB30 TEMPO 2106/2107 4000 +RA BKN004 BECMG 2107/2110 29020G31KT TEMPO 2107/2118 29029G42KT 7000 SHRA PROB30 TEMPO 2110/2117 4000 +SHRA BKN012 BECMG 2121/2124 28013KT
 
BENSON Metar   EGUB 210825Z 25014KT 9999 FEW020 SCT070 12/07 Q1002 BLU NOSIG
 
  TAF   2014/10/21 09:03 TAF EGUB 210729Z 2109/2118 29022G36KT 9999 SCT030 PROB40 TEMPO 2110/2118 7000 SHRA SCT022CB
 
Big Field view 1 icon   Big Field view 2 icon   Big Field view 3 icon   Chart AL3a in PDF icon   Chart AL3a in Word icon

WARNING:
This information is provided by the Airstrip unofficial weather station, DO NOT depend on the data provided here for any purpose.
This page is updated for latest Metars & TAF's every 5 minutes. Refresh the browser to check for the lastest.
Page designed for a minimum browser size of 1024x768.
© Copyright 2014 BigField Strip. This page auto generated 08:41 UTC - 21/10/2014   Contact Us
Valid HTML 4.01 Transitional     Windows uptime: 1 Days 6 Hours 9 Minutes 31 Seconds    WD started: 02:37 20/10/14    Free memory: 1447MB     Valid CSS!